Tiempo atmosférico en la estación meteorológica de Talarn, Lleida (799 m.)



Fecha
DESCASC
Temp. máxima en grados centígrados (hora)
DESCASC
Temp. mínima en grados centígrados (hora)
DESCASC
Temp. media en grados centígrados
DESCASC
Racha de viento máxima en m/sg (hora)
DESCASC
Velocidad máxima media en intervalos de 10 minutos(hora)
DESCASC
Precipitaciones diarias en mm
DESCASC
Precipitaciones de 00:00 a 06:00 en mm
DESCASC
Precipitaciones de 06:00 a 12:00 en mm
DESCASC
Precipitaciones de 12:00 a 18:00 en mm
DESCASC
Precipitaciones de 18:00 a 24:00 en mm
DESCASC
30-11-2020 12.2 (16:20) 3.3 (08:00) 7.7 2.78 (14:50) 1.67 (18:10) 0 0 0 0 0
29-11-2020 12.6 (15:30) 2.8 (00:00) 7.7 3.61 (01:20) 2.78 (01:10) 0 0 0 0 0
28-11-2020 10.4 (12:50) 4.8 (00:00) 7.6 7.22 (01:10) 4.17 (01:10) 0.4 0.2 0 0.2 0
27-11-2020 12.2 (14:30) 6.6 (00:00) 9.4 6.39 (14:00) 3.61 (20:50) 0.4 0 0 0 0.4
26-11-2020 12.3 (11:30) 5.8 (00:00) 9.1 4.44 (09:50) 3.61 (22:30) 0.4 0 0 0.4 0
25-11-2020 10.9 (14:30) 1.1 (00:00) 6 5 (14:10) 3.61 (14:10) 0 0 0 0 0
24-11-2020 12 (15:00) 1 (00:00) 6.5 3.61 (21:40) 2.78 (20:00) 0 0 0 0 0
23-11-2020 11.9 (14:50) 0.1 (00:00) 6 3.89 (12:30) 2.22 (12:20) 0 0 0 0 0
22-11-2020 12 (14:50) -0.4 (00:00) 5.8 3.89 (12:10) 2.22 (22:00) 0 0 0 0 0
21-11-2020 12.9 (15:30) 0 (00:00) 6.4 3.89 (03:40) 3.33 (03:40) 0 0 0 0 0
20-11-2020 16.7 (15:20) 5.4 (00:00) 11.1 6.67 (09:30) 5 (16:10) 0 0 0 0 0
19-11-2020 16.4 (15:00) 5.3 (00:00) 10.8 4.44 (23:59) 2.5 (19:30) 0 0 0 0 0
18-11-2020 16.3 (15:40) 4.8 (00:00) 10.5 3.89 (15:00) 3.33 (17:30) 0 0 0 0 0
17-11-2020 16.2 (15:30) 5.7 (00:00) 11 3.61 (15:00) 2.5 (12:10) 0 0 0 0 0
16-11-2020 16.6 (13:10) 8.8 (00:00) 12.7 6.39 (14:40) 4.17 (14:40) 0 0 0 0 0
15-11-2020 16 (14:30) 6.7 (00:00) 11.3 8.61 (14:10) 5 (14:30) 0 0 0 0 0
14-11-2020 14.4 (14:30) 3.6 (00:00) 9 3.61 (12:50) 2.22 (01:20) 0 0 0 0 0
13-11-2020 15.2 (15:10) 4.7 (00:00) 9.9 3.33 (14:10) 2.5 (18:40) 0 0 0 0 0
12-11-2020 13 (13:20) 5.6 (00:00) 9.3 3.33 (12:40) 2.78 (17:50) 0 0 0 0 0
11-11-2020 14.4 (15:10) 4.5 (00:00) 9.4 3.89 (18:50) 2.78 (18:50) 0 0 0 0 0
10-11-2020 15.4 (15:10) 5 (00:00) 10.2 3.89 (15:50) 2.22 (18:20) 0 0 0 0 0
09-11-2020 14.5 (16:20) 4.4 (00:00) 9.5 4.44 (13:00) 2.5 (13:00) 0 0 0 0 0
08-11-2020 13.5 (16:00) 6.7 (00:00) 10.1 3.33 (02:30) 2.5 (02:30) 0.2 0 0.2 0 0
07-11-2020 14.9 (08:50) 9 (00:00) 11.9 11.94 (08:50) 6.94 (11:40) 13.8 0 3 5.6 5.2
06-11-2020 16.2 (13:20) 9.3 (00:00) 12.8 6.39 (15:30) 4.17 (00:50) 7 7 0 0 0
05-11-2020 17 (15:00) 5 (00:00) 11 6.67 (19:40) 4.44 (01:50) 0.4 0 0 0 0.4
04-11-2020 9.3 (15:40) 7.1 (00:00) 8.2 5.83 (22:30) 3.89 (22:30) 16.4 11.4 4.8 0.2 0
03-11-2020 14.2 (00:00) 8.7 (00:00) 11.4 5.28 (17:10) 3.06 (17:10) 9.6 0 0 5.8 3.8
02-11-2020 21.7 (16:00) 8.1 (00:00) 14.9 4.17 (13:20) 2.22 (18:50) 0 0 0 0 0

Gráficas

Temp. máximas Temp. mínimas Temp. medias Precipitaciones Rachas de viento máximas Velocidades máximas media en intervalos de 10 minutos

Datos horarios

Fecha y hora oficial Temperatura (ºC) Velocidad del viento (km/h) Dirección del viento Racha (km/h) Dirección de racha Precipitación (mm) Presión (hPa) Tendencia (hPa) Humedad (%)
2020-12-01 23:00:00 3.1 4 Oeste 8 Oeste 0 919.7 -- 97
2020-12-01 22:00:00 3.2 3 Este 7 Norte 0 920.3 -- 96
2020-12-01 21:00:00 4.2 6 Oeste 14 Norte 0 920.8 -- 90
2020-12-01 20:00:00 4.1 2 Sudoeste 12 Norte 0 921.1 -- 91
2020-12-01 19:00:00 4.3 4 Oeste 8 Noroeste 0 921.7 -- 89
2020-12-01 18:00:00 4.5 4 Nordeste 7 Noroeste 0 921.9 -- 90
2020-12-01 17:00:00 5.4 5 Norte 7 Norte 0 922.2 -- 90
2020-12-01 16:00:00 6.9 0 Calma 6 Sudoeste 0 922.9 -- 86
2020-12-01 15:00:00 7.1 3 Sudoeste 8 Sur 0 923.5 -- 84
2020-12-01 14:00:00 6.9 4 Sur 8 Sur 0 924.4 -- 83
2020-12-01 13:00:00 7 3 Sudeste 5 Sur 0 925.5 -- 83
2020-12-01 12:00:00 4.6 4 Sudoeste 7 Sur 0 926.2 -- 96
2020-12-01 11:00:00 4.9 3 Oeste 8 Sudoeste 0 927 -- 98
2020-12-01 10:00:00 4.9 0 Calma 6 Sur 0 927.2 -- 99
2020-12-01 09:00:00 2.5 2 Sur 5 Sur 0 927.6 -- 97
2020-12-01 08:00:00 1.9 3 Sudoeste 6 Norte 0 927.4 -- 97
2020-12-01 07:00:00 2.5 5 Norte 9 Norte 0 927.3 -- 97
2020-12-01 06:00:00 3 2 Sudoeste 8 Noroeste 0 927.6 -- 97
2020-12-01 05:00:00 2 2 Noroeste 6 Oeste 0 927.8 -- 96
2020-12-01 04:00:00 3.6 4 Este 5 Sudeste 0 928.4 -- 97
2020-12-01 03:00:00 3.5 4 Sudoeste 5 Sur 0 928.8 -- 95
2020-12-01 02:00:00 3.7 4 Norte 9 Norte 0 928.9 -- 95
2020-12-01 01:00:00 4.4 2 Este 7 Nordeste 0 929.4 -- 94
2020-12-01 00:00:00 5 3 Oeste 8 Noroeste 0 929.7 -- 85
2020-11-30 23:00:00 5.5 5 Noroeste 6 Norte 0 929.5 -- 87
2020-11-30 22:00:00 5.7 3 Noroeste 5 Norte 0 929.6 -- 88
2020-11-30 21:00:00 6.8 0 Calma 4 Sudoeste 0 929.5 -- 83
2020-11-30 20:00:00 7.9 3 Oeste 5 Oeste 0 929.3 -- 78
2020-11-30 19:00:00 7.5 5 Noroeste 8 Norte 0 929.1 -- 79
2020-11-30 18:00:00 7.9 4 Norte 8 Norte 0 928.6 -- 75
2020-11-30 17:00:00 9.4 2 Oeste 6 Sur 0 928.5 -- 67
2020-11-30 16:00:00 11.9 2 Noroeste 9 Sur 0 928.3 -- 63
2020-11-30 15:00:00 12 5 Sur 10 Sur 0 928.4 -- 65
2020-11-30 14:00:00 11.2 5 Sur 10 Sur 0 928.7 -- 67
2020-11-30 13:00:00 10.3 6 Sur 10 Sur 0 929 -- 73
2020-11-30 12:00:00 9.5 5 Sur 8 Sur 0 929.4 -- 75
2020-11-30 11:00:00 7.6 4 Sudoeste 7 Sur 0 929.9 -- 81
2020-11-30 10:00:00 7.2 3 Sur 6 Sur 0 929.7 -- 86
2020-11-30 09:00:00 6.3 2 Sudeste 6 Nordeste 0 929.3 -- 97
2020-11-30 08:00:00 3.3 4 Nordeste 5 Nordeste 0 928.6 -- 97
2020-11-30 07:00:00 4.4 3 Oeste 4 Sudoeste 0 928.1 -- 98
2020-11-30 06:00:00 4.7 2 Noroeste 6 Sur 0 927.7 -- 98
2020-11-30 05:00:00 4.9 3 Sudeste 9 Norte 0 927.4 -- 97
2020-11-30 04:00:00 5.2 3 Sudoeste 5 Sudoeste 0 927.2 -- 95
2020-11-30 03:00:00 5.3 0 Calma 5 Oeste 0 927.3 -- 90
2020-11-30 02:00:00 5.8 0 Calma 6 Oeste 0 927.2 -- 92
2020-11-30 01:00:00 6.1 6 Noroeste 8 Norte 0 927 -- 90
2020-11-30 00:00:00 6.7 4 Sudoeste 6 Oeste 0 927.1 -- 88
2020-11-29 23:00:00 6.8 2 Sudeste 6 Oeste 0 926.6 -- 85
2020-11-29 22:00:00 7 4 Norte 10 Norte 0 926.2 -- 85
2020-11-29 21:00:00 7.3 0 Calma 10 Noroeste 0 925.7 -- 79
2020-11-29 20:00:00 7.9 2 Sudoeste 8 Nordeste 0 925.3 -- 79
2020-11-29 19:00:00 7.8 3 Oeste 9 Norte 0 924.8 -- 77
2020-11-29 18:00:00 8 3 Este 5 Norte 0 924.4 -- 77
2020-11-29 17:00:00 10.3 0 Calma 5 Sudoeste 0 923.8 -- 67
2020-11-29 16:00:00 11.1 3 Sur 8 Sur 0 923.3 -- 62
2020-11-29 15:00:00 11.5 3 Sudoeste 10 Sur 0 923.2 -- 74
2020-11-29 14:00:00 11.2 6 Sur 10 Sur 0 923.4 -- 69
2020-11-29 13:00:00 11.3 4 Sur 9 Sudoeste 0 923.6 -- 67
2020-11-29 12:00:00 9.8 5 Sur 9 Sur 0 923.9 -- 77
2020-11-29 11:00:00 8.5 4 Sur 8 Sur 0 924.4 -- 83
2020-11-29 10:00:00 7.3 4 Sudoeste 7 Sur 0 924 -- 88
2020-11-29 09:00:00 6.1 4 Sur 8 Norte 0 923.4 -- 96
2020-11-29 08:00:00 3 3 Nordeste 9 Sur 0 922.2 -- 97
2020-11-29 07:00:00 3.8 4 Nordeste 9 Sudeste 0 921.3 -- 96
2020-11-29 06:00:00 3.9 8 Noroeste 10 Noroeste 0 920.8 -- 96
2020-11-29 05:00:00 5.2 4 Sudoeste 8 Norte 0 920.4 -- 94
2020-11-29 04:00:00 5.8 3 Oeste 6 Oeste 0 920.3 -- 93
2020-11-29 03:00:00 5.4 3 Noroeste 6 Norte 0 920.3 -- 89
2020-11-29 02:00:00 5.1 4 Norte 13 Noroeste 0 919.9 -- 89
2020-11-29 01:00:00 5.2 7 Noroeste 12 Norte 0 919.6 -- 93
2020-11-29 00:00:00 7.1 4 Noroeste 8 Noroeste 0 919.1 -- 87
2020-11-28 23:00:00 7.1 3 Sudoeste 9 Norte 0 918.7 -- 92
2020-11-28 22:00:00 7.1 4 Sur 8 Norte 0 918.4 -- 89
2020-11-28 21:00:00 6.9 5 Oeste 12 Norte 0 918 -- 93
2020-11-28 20:00:00 7.1 4 Oeste 8 Noroeste 0 917.3 -- 92
2020-11-28 19:00:00 6.8 2 Sur 8 Norte 0 916.6 -- 93
2020-11-28 18:00:00 6 7 Noroeste 9 Noroeste 0 915.7 -- 95
2020-11-28 17:00:00 7 0 Calma 9 Sur 0 915.1 -- 94
2020-11-28 16:00:00 8.9 5 Sudoeste 10 Norte 0 914.6 -- 93
2020-11-28 15:00:00 9.6 4 Sur 11 Norte 0 914.3 -- 92
2020-11-28 14:00:00 8.9 7 Norte 10 Noroeste 0.2 914.5 -- 86
2020-11-28 13:00:00 9 5 Sudoeste 14 Este 0 914 -- 84
2020-11-28 12:00:00 8.4 5 Noroeste 8 Norte 0 914.1 -- 84
2020-11-28 11:00:00 8.2 4 Sur 7 Norte 0 914.3 -- 86
2020-11-28 10:00:00 7.4 2 Norte 9 Sur 0 914 -- 83
2020-11-28 09:00:00 6.4 4 Noroeste 7 Sur 0 913.8 -- 84
2020-11-28 08:00:00 5.8 3 Sudoeste 9 Noroeste 0 913.6 -- 85
2020-11-28 07:00:00 5.2 5 Oeste 11 Sur 0 913.6 -- 85
2020-11-28 06:00:00 6.7 3 Noroeste 13 Noroeste 0 913.7 -- 77
2020-11-28 05:00:00 7.2 6 Norte 13 Nordeste 0 914.3 -- 78
2020-11-28 04:00:00 6.3 3 Oeste 6 Sur 0 915.1 -- 88
2020-11-28 03:00:00 7.3 6 Sur 19 Este 0 915.4 -- 84
2020-11-28 02:00:00 8.7 9 Nordeste 26 Nordeste 0 915.9 -- 69
2020-11-28 01:00:00 7.8 14 Nordeste 24 Nordeste 0.2 916.5 -- 81
2020-11-28 00:00:00 7.7 4 Noroeste 13 Sudeste 0.2 917.5 -- 87
2020-11-27 23:00:00 8.3 6 Sur 10 Sur 0.2 917.7 -- 82
2020-11-27 22:00:00 9.4 4 Sudoeste 13 Este 0 917.6 -- 71
2020-11-27 21:00:00 10.6 10 Nordeste 22 Nordeste 0 917.3 -- 60
2020-11-27 20:00:00 8.5 9 Noroeste 13 Noroeste 0 917.6 -- 77
2020-11-27 19:00:00 8.4 3 Noroeste 7 Sur 0 917.7 -- 77
2020-11-27 18:00:00 8.4 7 Norte 9 Noroeste 0 917.7 -- 79
2020-11-27 17:00:00 10.1 0 Calma 9 Sudoeste 0 918.1 -- 71
2020-11-27 16:00:00 10.7 4 Nordeste 10 Sur 0 918.5 -- 71
2020-11-27 15:00:00 10.9 4 Sudoeste 19 Nordeste 0 918.5 -- 71
2020-11-27 14:00:00 11.5 12 Nordeste 23 Nordeste 0 919.2 -- 63
2020-11-27 13:00:00 10.6 3 Sudoeste 14 Nordeste 0 920.1 -- 79
2020-11-27 12:00:00 9.6 5 Sudoeste 9 Sur 0 921.2 -- 83
2020-11-27 11:00:00 9.3 6 Norte 16 Norte 0 921.7 -- 80
2020-11-27 10:00:00 7.6 3 Noroeste 10 Sur 0 921.9 -- 90
2020-11-27 09:00:00 7.7 4 Sur 8 Sur 0 921.9 -- 85
2020-11-27 08:00:00 6.7 5 Norte 15 Norte 0 921.8 -- 86
2020-11-27 07:00:00 7.2 8 Noroeste 14 Norte 0 921.8 -- 84
2020-11-27 06:00:00 7.1 5 Norte 11 Norte 0 921.9 -- 85
2020-11-27 05:00:00 8 6 Norte 11 Norte 0 922.5 -- 82
2020-11-27 04:00:00 7.6 6 Noroeste 12 Sur 0 922.9 -- 85
2020-11-27 03:00:00 8.8 11 Norte 15 Norte 0 923.2 -- 78
2020-11-27 02:00:00 8 5 Sudoeste 9 Norte 0 923.6 -- 84
2020-11-27 01:00:00 8 8 Norte 10 Norte 0 923.9 -- 85
2020-11-27 00:00:00 8.4 4 Sur 12 Norte 0 924.2 -- 81
2020-11-26 23:00:00 8.6 10 Norte 15 Norte 0 924.2 -- 78
2020-11-26 22:00:00 8.8 8 Norte 13 Nordeste 0 924.5 -- 83
2020-11-26 21:00:00 8.7 2 Oeste 5 Noroeste 0 924.6 -- 85
2020-11-26 20:00:00 9.1 2 Noroeste 6 Norte 0 924.6 -- 83
2020-11-26 19:00:00 9.5 8 Norte 14 Norte 0 924.4 -- 83
2020-11-26 18:00:00 9.9 3 Oeste 12 Noroeste 0.2 924.3 -- 79
2020-11-26 17:00:00 9.5 4 Oeste 14 Norte 0 924.1 -- 82
2020-11-26 16:00:00 10.1 8 Norte 11 Norte 0 923.6 -- 80
2020-11-26 15:00:00 10.8 8 Norte 12 Norte 0.2 923.6 -- 78
2020-11-26 14:00:00 11 3 Norte 8 Sur 0 924 -- 70
2020-11-26 13:00:00 11.4 2 Sudeste 13 Sur 0 924.4 -- 65
2020-11-26 12:00:00 10.4 4 Sudoeste 12 Sudeste 0 924.8 -- 71
2020-11-26 11:00:00 9.9 3 Noroeste 9 Sudoeste 0 925.2 -- 71
2020-11-26 10:00:00 8.8 7 Sudoeste 16 Sur 0 924.8 -- 74
2020-11-26 09:00:00 9.5 4 Norte 9 Noroeste 0 924.5 -- 70
2020-11-26 08:00:00 5.8 4 Noroeste 10 Sur 0 924.2 -- 89
2020-11-26 07:00:00 6.5 3 Sur 10 Noroeste 0 923.8 -- 85
2020-11-26 06:00:00 6 8 Noroeste 11 Norte 0 923.5 -- 84
2020-11-26 05:00:00 7.3 4 Norte 16 Norte 0 923.9 -- 77
2020-11-26 04:00:00 7.1 8 Norte 14 Noroeste 0 924 -- 81
2020-11-26 03:00:00 6.5 6 Norte 11 Norte 0 924.1 -- 87
2020-11-26 02:00:00 6.3 5 Norte 10 Norte 0 924 -- 82
2020-11-26 01:00:00 6.5 6 Norte 9 Norte 0 924.4 -- 82
2020-11-26 00:00:00 7.6 6 Nordeste 9 Norte 0 924.6 -- 81
2020-11-25 23:00:00 8.7 5 Nordeste 10 Este 0 924.7 -- 79
2020-11-25 22:00:00 8.9 4 Nordeste 11 Nordeste 0 924.6 -- 79
2020-11-25 21:00:00 8.9 6 Nordeste 12 Nordeste 0 924.2 -- 78
2020-11-25 20:00:00 8.5 6 Nordeste 10 Norte 0 924.2 -- 79
2020-11-25 19:00:00 8.9 4 Este 9 Norte 0 923.9 -- 75
2020-11-25 18:00:00 7.9 2 Este 10 Sur 0 923.6 -- 71
2020-11-25 17:00:00 9.3 6 Norte 12 Norte 0 923.2 -- 70
2020-11-25 16:00:00 10.1 5 Nordeste 10 Sur 0 923.3 -- 66
2020-11-25 15:00:00 10 3 Oeste 18 Norte 0 923.4 -- 57
2020-11-25 14:00:00 7.7 10 Noroeste 16 Norte 0 923.8 -- 65
2020-11-25 13:00:00 7.2 6 Sudoeste 15 Sur 0 924.4 -- 67
2020-11-25 12:00:00 7.3 6 Sur 13 Sur 0 925 -- 68
2020-11-25 11:00:00 4.8 3 Sudeste 6 Sur 0 925.7 -- 78
2020-11-25 10:00:00 4.5 2 Sudoeste 7 Oeste 0 925.8 -- 81
2020-11-25 09:00:00 3.5 0 Calma 8 Norte 0 925.7 -- 87
2020-11-25 08:00:00 2.1 4 Nordeste 7 Norte 0 925.5 -- 87
2020-11-25 07:00:00 1.8 2 Sur 4 Sur 0 925.2 -- 87
2020-11-25 06:00:00 2.3 3 Oeste 7 Oeste 0 925 -- 87
2020-11-25 05:00:00 2.9 0 Calma 10 Nordeste 0 925.1 -- 85
2020-11-25 04:00:00 2.5 4 Noroeste 7 Noroeste 0 925.1 -- 82
2020-11-25 03:00:00 3.6 5 Oeste 13 Norte 0 925.5 -- 82
2020-11-25 02:00:00 3.7 9 Norte 13 Norte 0 925.8 -- 83
2020-11-25 01:00:00 4.9 3 Sudoeste 11 Noroeste 0 926.3 -- 74
2020-11-25 00:00:00 4.6 2 Sudoeste 7 Norte 0 926.5 -- 76
2020-11-24 23:00:00 5.3 0 Calma 5 Sudoeste 0 926.6 -- 71
2020-11-24 22:00:00 5.8 6 Noroeste 13 Noroeste 0 926.7 -- 72
2020-11-24 21:00:00 6.7 5 Noroeste 12 Norte 0 926.8 -- 65
2020-11-24 20:00:00 6 10 Norte 13 Norte 0 926.9 -- 68
2020-11-24 19:00:00 6.8 8 Norte 11 Norte 0 926.8 -- 61
2020-11-24 18:00:00 6.8 9 Norte 10 Norte 0 926.6 -- 61
2020-11-24 17:00:00 7.3 7 Norte 9 Norte 0 926.4 -- 60
2020-11-24 16:00:00 11 4 Sur 9 Sur 0 926.7 -- 46
2020-11-24 15:00:00 11.7 5 Sur 10 Sudoeste 0 927.1 -- 44
2020-11-24 14:00:00 11.6 6 Sur 10 Sudoeste 0 927.9 -- 44
2020-11-24 13:00:00 9.7 6 Sur 12 Sur 0 928.6 -- 56
2020-11-24 12:00:00 8.5 6 Sur 12 Sur 0 929.5 -- 61
2020-11-24 11:00:00 6.3 5 Sur 8 Sudoeste 0 930.3 -- 69
2020-11-24 10:00:00 5.2 3 Sudoeste 6 Sur 0 930.4 -- 72
2020-11-24 09:00:00 2.7 0 Calma 6 Oeste 0 930.5 -- 77
2020-11-24 08:00:00 1.5 5 Sudoeste 7 Norte 0 930.4 -- 77
2020-11-24 07:00:00 1.3 5 Norte 6 Norte 0 930.3 -- 71
2020-11-24 06:00:00 1.8 2 Sudoeste 4 Sudoeste 0 930.3 -- 76
2020-11-24 05:00:00 2.4 2 Sur 4 Sur 0 930.4 -- 74
2020-11-24 04:00:00 2.3 3 Norte 5 Norte 0 930.7 -- 72
2020-11-24 03:00:00 2.8 0 Calma 5 Sudoeste 0 931.1 -- 73
2020-11-24 02:00:00 4.3 3 Oeste 5 Oeste 0 931.3 -- 67
2020-11-24 01:00:00 4 2 Noroeste 4 Nordeste 0 931.8 -- 67
2020-11-24 00:00:00 5.1 2 Sudoeste 6 Noroeste 0 932.2 -- 64
2020-11-23 23:00:00 4.9 3 Sudoeste 6 Sudoeste 0 932.5 -- 66
2020-11-23 22:00:00 5.6 5 Sudoeste 9 Norte 0 932.6 -- 63
2020-11-23 21:00:00 6.1 2 Noroeste 3 Sudoeste 0 932.6 -- 57
2020-11-23 20:00:00 7 2 Sudoeste 4 Noroeste 0 932.6 -- 54
2020-11-23 19:00:00 6.1 5 Norte 6 Norte 0 932.5 -- 58
2020-11-23 18:00:00 6.8 5 Norte 9 Norte 0 932.3 -- 56
2020-11-23 17:00:00 9.9 0 Calma 7 Sur 0 932 -- 44
2020-11-23 16:00:00 11.8 4 Sur 11 Sudoeste 0 931.9 -- 40
2020-11-23 15:00:00 11.7 7 Sur 12 Sur 0 932.1 -- 42
2020-11-23 14:00:00 10.8 7 Sur 13 Sur 0 932.7 -- 46
2020-11-23 13:00:00 9.8 5 Sur 14 Sur 0 933.3 -- 52
2020-11-23 12:00:00 8.2 6 Sur 11 Sur 0 933.9 -- 59
2020-11-23 11:00:00 5.7 5 Sur 10 Sur 0 934.5 -- 66
2020-11-23 10:00:00 5.3 4 Sudoeste 7 Sudoeste 0 934.3 -- 67
2020-11-23 09:00:00 3.5 3 Sur 5 Sur 0 934.3 -- 71
2020-11-23 08:00:00 1.5 0 Calma 4 Sudoeste 0 934 -- 74
2020-11-23 07:00:00 0.4 3 Noroeste 4 Norte 0 933.5 -- 74
2020-11-23 06:00:00 1.4 2 Sudoeste 6 Sur 0 933.4 -- 74
2020-11-23 05:00:00 1.5 5 Noroeste 8 Noroeste 0 933.3 -- 70
2020-11-23 04:00:00 2.3 0 Calma 5 Sur 0 933.1 -- 70
2020-11-23 03:00:00 2.9 3 Sudoeste 4 Sudoeste 0 933.2 -- 67
2020-11-23 02:00:00 3.2 0 Calma 5 Oeste 0 933.4 -- 68
2020-11-23 01:00:00 3.7 4 Oeste 5 Oeste 0 933.3 -- 63
2020-11-23 00:00:00 4.5 3 Oeste 5 Norte 0 933.4 -- 59
2020-11-22 23:00:00 4.9 2 Sudoeste 10 Norte 0 933.6 -- 57
2020-11-22 22:00:00 3.9 8 Norte 11 Norte 0 933.5 -- 62
2020-11-22 21:00:00 6.2 0 Calma 6 Noroeste 0 933.5 -- 53
2020-11-22 20:00:00 7 0 Calma 6 Noroeste 0 933.4 -- 49
2020-11-22 19:00:00 6.8 5 Noroeste 10 Norte 0 932.9 -- 52
2020-11-22 18:00:00 7.7 3 Noroeste 5 Noroeste 0 932.8 -- 47
2020-11-22 17:00:00 11 3 Sudoeste 7 Sur 0 932.2 -- 37
2020-11-22 16:00:00 11.5 4 Sur 11 Sur 0 932 -- 33
2020-11-22 15:00:00 11.8 7 Sur 13 Sur 0 932.1 -- 32
2020-11-22 14:00:00 10.8 7 Sur 13 Sur 0 932.6 -- 40
2020-11-22 13:00:00 9.7 7 Sur 14 Sur 0 933.1 -- 46
2020-11-22 12:00:00 8.5 6 Sur 12 Sur 0 933.6 -- 52
2020-11-22 11:00:00 6.3 5 Sur 11 Sudoeste 0 934.2 -- 61
2020-11-22 10:00:00 5.2 5 Sur 8 Sudoeste 0 934.1 -- 60
2020-11-22 09:00:00 3.4 3 Sudoeste 5 Sudoeste 0 933.9 -- 62
2020-11-22 08:00:00 -0.1 4 Norte 7 Norte 0 933.9 -- 71
2020-11-22 07:00:00 0.7 0 Calma 5 Norte 0 933.8 -- 68
2020-11-22 06:00:00 0.7 0 Calma 8 Norte 0 933.6 -- 64
2020-11-22 05:00:00 0.8 2 Nordeste 4 Sudoeste 0 933.5 -- 65
2020-11-22 04:00:00 1.9 2 Sudoeste 9 Norte 0 933.7 -- 62
2020-11-22 03:00:00 2.8 0 Calma 6 Norte 0 934 -- 58
2020-11-22 02:00:00 3 3 Sur 8 Noroeste 0 933.9 -- 57
2020-11-22 01:00:00 2.8 2 Oeste 4 Oeste 0 934.3 -- 60
2020-11-22 00:00:00 4.3 0 Calma 10 Noroeste 0 934.4 -- 47
2020-11-21 23:00:00 3 7 Noroeste 10 Noroeste 0 934.5 -- 53
2020-11-21 22:00:00 5.1 2 Sudoeste 4 Sur 0 934.8 -- 55
2020-11-21 21:00:00 6.1 2 Sudoeste 11 Noroeste 0 934.5 -- 49
2020-11-21 20:00:00 5.9 4 Noroeste 9 Norte 0 934.4 -- 46
2020-11-21 19:00:00 6 8 Norte 11 Noroeste 0 934.3 -- 45
2020-11-21 18:00:00 7.7 0 Calma 10 Norte 0 934.1 -- 38
2020-11-21 17:00:00 11 3 Sudoeste 9 Sur 0 934 -- 29
2020-11-21 16:00:00 11.8 5 Sur 12 Sur 0 933.6 -- 28
2020-11-21 15:00:00 12.5 6 Sur 14 Sudeste 0 933.7 -- 28
2020-11-21 14:00:00 11.7 6 Sur 13 Sudoeste 0 933.9 -- 30
2020-11-21 13:00:00 10.6 5 Sur 13 Sur 0 934.5 -- 33
2020-11-21 12:00:00 8.8 5 Sudoeste 14 Sur 0 934.7 -- 42
2020-11-21 11:00:00 5.8 8 Sur 13 Sur 0 934.7 -- 51
2020-11-21 10:00:00 6.8 4 Sur 9 Sur 0 934.3 -- 33
2020-11-21 09:00:00 4.8 3 Oeste 8 Sur 0 934.2 -- 32
2020-11-21 08:00:00 1.1 3 Sur 13 Norte 0 933.8 -- 45
2020-11-21 07:00:00 0.9 9 Norte 13 Norte 0 933.2 -- 38
2020-11-21 06:00:00 2.2 3 Sudoeste 8 Este 0 932.9 -- 35
2020-11-21 05:00:00 2.5 3 Oeste 8 Sudoeste 0 932.9 -- 31
2020-11-21 04:00:00 2.4 4 Oeste 14 Noroeste 0 932.7 -- 34
2020-11-21 03:00:00 4 4 Oeste 14 Noroeste 0 932.5 -- 30
2020-11-21 02:00:00 4.7 9 Noroeste 12 Norte 0 932.7 -- 23
2020-11-21 01:00:00 4.8 5 Noroeste 8 Norte 0 932.9 -- 22
2020-11-21 00:00:00 6.6 3 Sudoeste 14 Noroeste 0 933 -- 26
2020-11-20 23:00:00 6.6 3 Oeste 10 Norte 0 933.1 -- 24
2020-11-20 22:00:00 8.2 9 Norte 16 Norte 0 933 -- 10
2020-11-20 21:00:00 7.9 12 Norte 17 Norte 0 932.8 -- 13
2020-11-20 20:00:00 7.1 9 Norte 14 Norte 0 932.8 -- 27
2020-11-20 19:00:00 9.2 3 Oeste 18 Norte 0 932.4 -- 25
2020-11-20 18:00:00 8.7 15 Norte 19 Norte 0 932.1 -- 35
2020-11-20 17:00:00 11.5 9 Noroeste 22 Oeste 0 931.9 -- 28
2020-11-20 16:00:00 15.2 17 Oeste 22 Oeste 0 932 -- 22
2020-11-20 15:00:00 16.2 13 Sudoeste 24 Oeste 0 932.4 -- 12
2020-11-20 14:00:00 15.8 4 Sudeste 14 Sur 0 932.9 -- 13
2020-11-20 13:00:00 14.9 6 Sur 14 Sur 0 933.3 -- 14
2020-11-20 12:00:00 14.9 8 Sur 12 Sur 0 933.7 -- 21
2020-11-20 11:00:00 13.7 7 Este 21 Nordeste 0 934.3 -- 13
2020-11-20 10:00:00 11.8 11 Nordeste 24 Nordeste 0 934.2 -- 14
2020-11-20 09:00:00 9.3 10 Nordeste 23 Nordeste 0 934.5 -- 18
2020-11-20 08:00:00 7.8 6 Nordeste 12 Norte 0 934 -- 17
2020-11-20 07:00:00 7.1 4 Norte 14 Norte 0 934 -- 23
2020-11-20 06:00:00 6.1 5 Noroeste 14 Norte 0 933.5 -- 32
2020-11-20 05:00:00 7 2 Oeste 9 Norte 0 933.8 -- 32
2020-11-20 04:00:00 7.8 4 Sudoeste 10 Norte 0 934.2 -- 43
2020-11-20 03:00:00 7.1 2 Oeste 12 Norte 0 934.5 -- 48
2020-11-20 02:00:00 6.7 5 Oeste 11 Norte 0 934.8 -- 51
2020-11-20 01:00:00 8.8 4 Oeste 15 Norte 0 935.2 -- 42
2020-11-20 00:00:00 9.9 9 Nordeste 16 Nordeste 0 935.3 -- 39
2020-11-19 23:00:00 9.1 4 Norte 8 Noroeste 0 935.6 -- 52
2020-11-19 22:00:00 9.2 8 Noroeste 14 Norte 0 935 -- 62
2020-11-19 21:00:00 9.6 7 Noroeste 13 Norte 0 935 -- 64
2020-11-19 20:00:00 11.5 6 Noroeste 13 Norte 0 935.1 -- 56
2020-11-19 19:00:00 11.2 4 Norte 9 Oeste 0 935.2 -- 67
2020-11-19 18:00:00 11.9 4 Sudeste 5 Sudeste 0 934.8 -- 73
2020-11-19 17:00:00 15.6 2 Oeste 6 Sur 0 934.6 -- 58
2020-11-19 16:00:00 15.5 2 Este 10 Sudoeste 0 934.4 -- 57
2020-11-19 15:00:00 16.4 8 Sur 14 Sur 0 934.4 -- 52
2020-11-19 14:00:00 15.6 8 Sur 12 Sur 0 934.9 -- 57
2020-11-19 13:00:00 14.5 7 Sur 13 Sudoeste 0 935.3 -- 63
2020-11-19 12:00:00 12.6 7 Sur 11 Sur 0 936.4 -- 67
2020-11-19 11:00:00 12 4 Sur 9 Sur 0 937 -- 72
2020-11-19 10:00:00 10.2 5 Sur 8 Sur 0 937 -- 79
2020-11-19 09:00:00 8.8 3 Sudoeste 5 Norte 0 937 -- 86
2020-11-19 08:00:00 6.3 2 Noroeste 6 Norte 0 936.2 -- 87
2020-11-19 07:00:00 5.7 0 Calma 8 Norte 0 935.8 -- 90
2020-11-19 06:00:00 6.8 0 Calma 4 Nordeste 0 935.5 -- 91
2020-11-19 05:00:00 7.1 2 Sudoeste 5 Sudoeste 0 935.3 -- 87
2020-11-19 04:00:00 7 2 Norte 3 Norte 0 935.3 -- 88
2020-11-19 03:00:00 6.9 0 Calma 3 Nordeste 0 935.1 -- 85
2020-11-19 02:00:00 8.1 2 Oeste 4 Sudoeste 0 935 -- 83
2020-11-19 01:00:00 8.4 2 Noroeste 5 Norte 0 935.2 -- 81
2020-11-19 00:00:00 8.5 2 Este 4 Sudoeste 0 935.1 -- 81
2020-11-18 23:00:00 8.2 4 Oeste 5 Norte 0 935.1 -- 80
2020-11-18 22:00:00 10.1 2 Sudoeste 5 Oeste 0 934.9 -- 75
2020-11-18 21:00:00 10.2 3 Oeste 5 Noroeste 0 934.4 -- 74
2020-11-18 20:00:00 10.1 4 Noroeste 4 Noroeste 0 934.2 -- 72
2020-11-18 19:00:00 11.8 0 Calma 11 Noroeste 0 933.7 -- 69
2020-11-18 18:00:00 11.1 9 Noroeste 14 Noroeste 0 933.3 -- 66
2020-11-18 17:00:00 13.6 4 Nordeste 8 Sudeste 0 933 -- 60
2020-11-18 16:00:00 15.9 3 Sudeste 13 Sur 0 932.7 -- 51
2020-11-18 15:00:00 15.8 9 Sur 14 Sur 0 932.6 -- 50
2020-11-18 14:00:00 15 6 Sur 13 Sur 0 932.8 -- 57
2020-11-18 13:00:00 14.1 6 Sur 14 Sur 0 933.3 -- 61
2020-11-18 12:00:00 13 6 Sur 10 Sur 0 933.8 -- 63
2020-11-18 11:00:00 11.2 5 Sur 10 Sur 0 934.2 -- 70
2020-11-18 10:00:00 9.8 5 Sur 8 Sur 0 934.2 -- 77
2020-11-18 09:00:00 8.6 3 Sur 5 Sudoeste 0 934.2 -- 81
2020-11-18 08:00:00 5.5 2 Nordeste 4 Sudoeste 0 934 -- 94
2020-11-18 07:00:00 5.7 2 Oeste 4 Sur 0 933.6 -- 91
2020-11-18 06:00:00 5.5 3 Oeste 4 Sur 0 933.5 -- 85
2020-11-18 05:00:00 5.8 6 Norte 10 Norte 0 933.4 -- 88
2020-11-18 04:00:00 6.6 4 Sudoeste 8 Norte 0 933.4 -- 87
2020-11-18 03:00:00 6.4 3 Nordeste 5 Nordeste 0 933.6 -- 86
2020-11-18 02:00:00 7.4 0 Calma 5 Sur 0 933.5 -- 83
2020-11-18 01:00:00 7.7 3 Sudoeste 6 Norte 0 933.9 -- 81
2020-11-18 00:00:00 8.1 4 Norte 7 Norte 0 934 -- 77
2020-11-17 23:00:00 8.7 0 Calma 9 Norte 0 934 -- 76
2020-11-17 22:00:00 9.8 2 Sudoeste 8 Noroeste 0 933.9 -- 73
2020-11-17 21:00:00 9.5 2 Sudoeste 9 Norte 0 933.6 -- 74
2020-11-17 20:00:00 9.9 4 Noroeste 10 Noroeste 0 933.5 -- 72
2020-11-17 19:00:00 10.4 5 Norte 11 Norte 0 933.3 -- 67
2020-11-17 18:00:00 10 8 Norte 10 Norte 0 932.8 -- 70
2020-11-17 17:00:00 14 0 Calma 8 Sur 0 932.7 -- 56
2020-11-17 16:00:00 15.5 7 Sudoeste 11 Sudoeste 0 932.5 -- 49
2020-11-17 15:00:00 15.8 8 Sur 13 Sur 0 932.2 -- 54
2020-11-17 14:00:00 15 8 Sur 12 Sur 0 932.4 -- 58
2020-11-17 13:00:00 14.4 7 Sudoeste 12 Sur 0 932.7 -- 64
2020-11-17 12:00:00 13.1 7 Sur 12 Sur 0 933.3 -- 68
2020-11-17 11:00:00 11.3 5 Sur 11 Sur 0 933.6 -- 73
2020-11-17 10:00:00 9.3 6 Sur 10 Sur 0 933.3 -- 86
2020-11-17 09:00:00 8.3 0 Calma 4 Sudoeste 0 932.7 -- 98
2020-11-17 08:00:00 6.7 2 Sur 7 Norte 0 932.1 -- 98
2020-11-17 07:00:00 6.6 3 Noroeste 5 Norte 0 931.6 -- 98
2020-11-17 06:00:00 6.8 3 Norte 7 Norte 0 931.6 -- 98
2020-11-17 05:00:00 7.8 6 Norte 8 Norte 0 931.4 -- 98
2020-11-17 04:00:00 8 4 Noroeste 7 Sur 0 931.3 -- 98
2020-11-17 03:00:00 7.1 2 Noroeste 7 Sur 0 931.5 -- 96
2020-11-17 02:00:00 8.3 3 Noroeste 5 Noroeste 0 931.5 -- 94
2020-11-17 01:00:00 9.1 4 Noroeste 8 Noroeste 0 931.9 -- 95
2020-11-17 00:00:00 8.8 8 Noroeste 10 Noroeste 0 931.9 -- 91
2020-11-16 23:00:00 10.6 6 Nordeste 10 Norte 0 932 -- 88
2020-11-16 22:00:00 10.3 8 Norte 12 Norte 0 931.7 -- 94
2020-11-16 21:00:00 9.8 7 Norte 9 Norte 0 931.2 -- 95
2020-11-16 20:00:00 10.5 7 Nordeste 12 Norte 0 930.4 -- 92
2020-11-16 19:00:00 10.5 6 Nordeste 8 Nordeste 0 929.9 -- 91
2020-11-16 18:00:00 10.6 6 Nordeste 8 Este 0 929.5 -- 91
2020-11-16 17:00:00 13.1 4 Sudoeste 17 Sudoeste 0 929.3 -- 77
2020-11-16 16:00:00 14.6 5 Oeste 13 Sudoeste 0 929 -- 70
2020-11-16 15:00:00 14.9 11 Sur 23 Sur 0 928.3 -- 69
2020-11-16 14:00:00 16.1 7 Sur 19 Sur 0 928.2 -- 66
2020-11-16 13:00:00 16.1 9 Sur 15 Sur 0 928.3 -- 65
2020-11-16 12:00:00 15.2 8 Sur 16 Sur 0 928.5 -- 70
2020-11-16 11:00:00 14.1 6 Sur 13 Sur 0 928.7 -- 74
2020-11-16 10:00:00 13 2 Sur 8 Oeste 0 928.4 -- 90
2020-11-16 09:00:00 11.4 3 Sur 4 Sur 0 927.7 -- 97
2020-11-16 08:00:00 9.7 4 Sudoeste 8 Sur 0 927 -- 97
2020-11-16 07:00:00 9.4 3 Este 9 Nordeste 0 926.4 -- 95
2020-11-16 06:00:00 9.9 6 Nordeste 9 Nordeste 0 926.1 -- 97
2020-11-16 05:00:00 10.5 3 Nordeste 5 Nordeste 0 926 -- 93
2020-11-16 04:00:00 11.2 5 Noroeste 7 Noroeste 0 926 -- 96
2020-11-16 03:00:00 11.4 4 Sur 9 Sur 0 926 -- 94
2020-11-16 02:00:00 11.3 4 Norte 10 Norte 0 926.1 -- 95
2020-11-16 01:00:00 11.5 4 Nordeste 7 Nordeste 0 926.5 -- 89
2020-11-16 00:00:00 12.4 4 Sudoeste 7 Norte 0 926.6 -- 81
2020-11-15 23:00:00 12.5 2 Oeste 6 Nordeste 0 926.2 -- 78
2020-11-15 22:00:00 12.3 3 Norte 12 Nordeste 0 926.3 -- 79
2020-11-15 21:00:00 12.3 4 Nordeste 9 Nordeste 0 926.1 -- 78
2020-11-15 20:00:00 12.2 4 Nordeste 11 Norte 0 926 -- 78
2020-11-15 19:00:00 12.6 8 Nordeste 22 Noroeste 0 925.7 -- 76
2020-11-15 18:00:00 13.4 9 Noroeste 21 Norte 0 925.3 -- 71
2020-11-15 17:00:00 14.3 8 Noroeste 22 Oeste 0 924.9 -- 67
2020-11-15 16:00:00 15.1 12 Oeste 22 Oeste 0 924.7 -- 65
2020-11-15 15:00:00 15.9 11 Oeste 31 Sudoeste 0 924.8 -- 59
2020-11-15 14:00:00 15 4 Sur 14 Sur 0 925 -- 61
2020-11-15 13:00:00 13.5 6 Sudeste 13 Sur 0 925.4 -- 65
2020-11-15 12:00:00 13.5 7 Sur 15 Sur 0 926.2 -- 64
2020-11-15 11:00:00 12.7 5 Sur 12 Sudoeste 0 926.5 -- 70
2020-11-15 10:00:00 11.1 5 Sur 11 Sur 0 926.5 -- 78
2020-11-15 09:00:00 8.8 5 Sudoeste 8 Norte 0 926.8 -- 88
2020-11-15 08:00:00 7.4 3 Sur 6 Sur 0 926.5 -- 92
2020-11-15 07:00:00 7.9 3 Oeste 6 Noroeste 0 926.4 -- 87
2020-11-15 06:00:00 8.2 3 Noroeste 4 Oeste 0 926.1 -- 87
2020-11-15 05:00:00 8.2 2 Norte 4 Este 0 925.9 -- 86
2020-11-15 04:00:00 8.7 2 Este 5 Sudoeste 0 926.1 -- 86
2020-11-15 03:00:00 8.5 2 Oeste 5 Sudoeste 0 926.4 -- 83
2020-11-15 02:00:00 9.2 3 Oeste 6 Norte 0 926.8 -- 84
2020-11-15 01:00:00 8.9 3 Sudoeste 8 Norte 0 927 -- 83
2020-11-15 00:00:00 8.3 4 Nordeste 5 Nordeste 0 927.4 -- 81
2020-11-14 23:00:00 9.6 3 Oeste 4 Oeste 0 927.7 -- 79
2020-11-14 22:00:00 9.9 3 Oeste 4 Sudoeste 0 927.6 -- 76
2020-11-14 21:00:00 9.8 0 Calma 6 Norte 0 927.4 -- 75
2020-11-14 20:00:00 10.1 0 Calma 5 Sur 0 927.4 -- 75
2020-11-14 19:00:00 9.6 2 Norte 4 Sudoeste 0 927.2 -- 76
2020-11-14 18:00:00 10.5 2 Noroeste 5 Norte 0 926.9 -- 76
2020-11-14 17:00:00 12.1 0 Calma 4 Oeste 0 926.8 -- 70
2020-11-14 16:00:00 13.2 0 Calma 7 Sur 0 927 -- 63
2020-11-14 15:00:00 13.6 5 Sur 13 Sur 0 927.3 -- 61
2020-11-14 14:00:00 14 7 Sur 13 Sur 0 927.7 -- 59
2020-11-14 13:00:00 12.3 8 Sur 13 Sur 0 928.2 -- 64
2020-11-14 12:00:00 11 6 Sur 11 Sur 0 929 -- 68
2020-11-14 11:00:00 9.7 6 Sur 10 Sur 0 929.2 -- 73
2020-11-14 10:00:00 8.7 4 Sur 8 Sur 0 929.1 -- 77
2020-11-14 09:00:00 7.3 2 Sudoeste 5 Sudoeste 0 929 -- 84
2020-11-14 08:00:00 4.6 0 Calma 5 Sudoeste 0 928.8 -- 96
2020-11-14 07:00:00 4.4 0 Calma 4 Sudoeste 0 928.4 -- 93
2020-11-14 06:00:00 4.6 2 Oeste 4 Norte 0 928.4 -- 95
2020-11-14 05:00:00 4.3 4 Norte 6 Norte 0 928.4 -- 95
2020-11-14 04:00:00 4.8 4 Norte 7 Norte 0 928.4 -- 93
2020-11-14 03:00:00 5.8 2 Sudoeste 4 Sudoeste 0 928.8 -- 86
2020-11-14 02:00:00 6.6 3 Sudoeste 9 Noroeste 0 929.1 -- 85
2020-11-14 01:00:00 6.2 2 Norte 5 Nordeste 0 929.4 -- 83
2020-11-14 00:00:00 7 2 Sudoeste 11 Norte 0 929.5 -- 81
2020-11-13 23:00:00 8.1 3 Sudoeste 10 Norte 0 929.4 -- 76
2020-11-13 22:00:00 8.6 4 Sur 7 Norte 0 929.4 -- 74
2020-11-13 21:00:00 8.6 7 Noroeste 11 Noroeste 0 928.8 -- 68
2020-11-13 20:00:00 8.4 6 Norte 12 Norte 0 928.7 -- 71
2020-11-13 19:00:00 8.6 8 Norte 11 Noroeste 0 928.5 -- 69
2020-11-13 18:00:00 9.3 6 Norte 10 Norte 0 928.1 -- 68
2020-11-13 17:00:00 12.4 3 Nordeste 8 Sudoeste 0 927.7 -- 61
2020-11-13 16:00:00 14.6 5 Sur 11 Sur 0 927.5 -- 54
2020-11-13 15:00:00 14.6 4 Sudeste 12 Sur 0 927.4 -- 57
2020-11-13 14:00:00 14.3 6 Sur 11 Sur 0 927.8 -- 59
2020-11-13 13:00:00 12.4 6 Sur 12 Sur 0 928.2 -- 67
2020-11-13 12:00:00 11.2 4 Sur 11 Sur 0 928.9 -- 72
2020-11-13 11:00:00 9.9 5 Sur 8 Sur 0 929.1 -- 73
2020-11-13 10:00:00 6.6 4 Sudoeste 6 Sur 0 929.4 -- 89
2020-11-13 09:00:00 6.4 3 Sudoeste 8 Sudoeste 0 929.1 -- 87
2020-11-13 08:00:00 5.6 2 Sudeste 5 Oeste 0 928.6 -- 87
2020-11-13 07:00:00 5.5 2 Oeste 4 Sudoeste 0 928.3 -- 88
2020-11-13 06:00:00 5.5 3 Sur 9 Norte 0 928.4 -- 87
2020-11-13 05:00:00 5.8 3 Oeste 7 Sudoeste 0 928.3 -- 86
2020-11-13 04:00:00 5.8 4 Oeste 7 Norte 0 928.4 -- 86
2020-11-13 03:00:00 6.2 3 Noroeste 8 Norte 0 928.8 -- 84
2020-11-13 02:00:00 6.2 3 Norte 6 Nordeste 0 929.1 -- 86
2020-11-13 01:00:00 7 2 Sur 4 Oeste 0 929.5 -- 82
2020-11-13 00:00:00 7.4 4 Sudoeste 10 Noroeste 0 929.8 -- 78
2020-11-12 23:00:00 7.6 3 Oeste 7 Noroeste 0 929.9 -- 82
2020-11-12 22:00:00 7.4 2 Norte 8 Noroeste 0 929.7 -- 81
2020-11-12 21:00:00 8.3 5 Noroeste 8 Noroeste 0 929.5 -- 72
2020-11-12 20:00:00 9.5 2 Oeste 4 Sudoeste 0 929.5 -- 76
2020-11-12 19:00:00 9.4 0 Calma 11 Norte 0 929.5 -- 70
2020-11-12 18:00:00 9.1 9 Norte 12 Norte 0 929.1 -- 70
2020-11-12 17:00:00 10.3 6 Noroeste 10 Norte 0 929 -- 69
2020-11-12 16:00:00 10.9 5 Norte 6 Norte 0 929 -- 80
2020-11-12 15:00:00 12.7 4 Sur 6 Sur 0 928.9 -- 71
2020-11-12 14:00:00 12.7 5 Sur 9 Sudoeste 0 929.1 -- 70
2020-11-12 13:00:00 12.3 4 Sur 12 Sudoeste 0 929.5 -- 71
2020-11-12 12:00:00 11.6 6 Sur 10 Sur 0 930.4 -- 73
2020-11-12 11:00:00 10.1 5 Sur 9 Sur 0 930.6 -- 80
2020-11-12 10:00:00 8.7 5 Sur 8 Sur 0 930.7 -- 85
2020-11-12 09:00:00 7.1 3 Oeste 7 Norte 0 930.5 -- 95
2020-11-12 08:00:00 6 2 Sudoeste 5 Noroeste 0 929.9 -- 90
2020-11-12 07:00:00 5.9 2 Sudeste 5 Nordeste 0 929.5 -- 92
2020-11-12 06:00:00 6.5 3 Oeste 6 Nordeste 0 929.5 -- 89
2020-11-12 05:00:00 6.3 5 Nordeste 6 Norte 0 929.4 -- 90
2020-11-12 04:00:00 6.9 0 Calma 4 Sudoeste 0 929.6 -- 87
2020-11-12 03:00:00 6.6 2 Nordeste 5 Norte 0 930 -- 86
2020-11-12 02:00:00 7.2 2 Sudeste 5 Sur 0 930.1 -- 86
2020-11-12 01:00:00 7.2 2 Noroeste 6 Norte 0 930.3 -- 83
2020-11-12 00:00:00 7.6 2 Sudeste 6 Norte 0 930.1 -- 82
2020-11-11 23:00:00 8.6 4 Oeste 6 Oeste 0 930.4 -- 76
2020-11-11 22:00:00 8.5 5 Oeste 7 Oeste 0 930.1 -- 78
2020-11-11 21:00:00 8.3 7 Norte 13 Norte 0 929.9 -- 76
2020-11-11 20:00:00 9.6 2 Sur 12 Norte 0 929.9 -- 77
2020-11-11 19:00:00 9.9 6 Norte 14 Norte 0 929.9 -- 71
2020-11-11 18:00:00 10 3 Nordeste 7 Nordeste 0 929.4 -- 76
2020-11-11 17:00:00 13.4 0 Calma 7 Sur 0 929.3 -- 61
2020-11-11 16:00:00 14.1 6 Sur 13 Sur 0 929.4 -- 58
2020-11-11 15:00:00 14.3 8 Sur 13 Sur 0 929.6 -- 61
2020-11-11 14:00:00 13.2 7 Sur 12 Sur 0 930 -- 65
2020-11-11 13:00:00 11.8 8 Sur 12 Sur 0 930.6 -- 72
2020-11-11 12:00:00 10.8 5 Sur 9 Sur 0 931.6 -- 75
2020-11-11 11:00:00 9.2 4 Sur 8 Sur 0 932.3 -- 81
2020-11-11 10:00:00 8.2 4 Sur 8 Sur 0 932.5 -- 89
2020-11-11 09:00:00 8 3 Sur 5 Sur 0 932.7 -- 92
2020-11-11 08:00:00 5 3 Norte 4 Norte 0 932.7 -- 98
2020-11-11 07:00:00 5.7 2 Oeste 4 Oeste 0 932.5 -- 98
2020-11-11 06:00:00 6.3 0 Calma 5 Norte 0 932.4 -- 97
2020-11-11 05:00:00 6.5 2 Sudoeste 4 Sur 0 932.6 -- 97
2020-11-11 04:00:00 5.7 3 Norte 5 Noroeste 0 932.8 -- 93
2020-11-11 03:00:00 6.6 2 Nordeste 4 Norte 0 933.2 -- 95
2020-11-11 02:00:00 7.6 2 Sur 4 Norte 0 933.5 -- 93
2020-11-11 01:00:00 7.2 5 Norte 7 Norte 0 933.8 -- 94
2020-11-11 00:00:00 8.3 0 Calma 7 Noroeste 0 933.7 -- 92
2020-11-10 23:00:00 8.8 4 Oeste 8 Noroeste 0 933.6 -- 87
2020-11-10 22:00:00 9.9 3 Sudoeste 6 Noroeste 0 933.5 -- 86
2020-11-10 21:00:00 9.7 4 Noroeste 5 Noroeste 0 933.3 -- 84
2020-11-10 20:00:00 10.3 2 Norte 8 Norte 0 933 -- 80
2020-11-10 19:00:00 11.1 3 Sur 10 Norte 0 932.7 -- 77
2020-11-10 18:00:00 11.1 3 Noroeste 8 Norte 0 932.4 -- 72
2020-11-10 17:00:00 14.1 3 Noroeste 9 Sur 0 932.1 -- 62
2020-11-10 16:00:00 14.8 5 Sur 14 Sudoeste 0 931.9 -- 58
2020-11-10 15:00:00 15 4 Sur 10 Sur 0 931.6 -- 57
2020-11-10 14:00:00 13.9 6 Sur 11 Sur 0 931.8 -- 71
2020-11-10 13:00:00 12.8 6 Sur 10 Sur 0 932.1 -- 73
2020-11-10 12:00:00 11 5 Sur 10 Sur 0 932.5 -- 78
2020-11-10 11:00:00 10.5 5 Sur 8 Sur 0 932.9 -- 80
2020-11-10 10:00:00 9.5 3 Sur 6 Sudeste 0 932.7 -- 84
2020-11-10 09:00:00 8.6 3 Sudoeste 5 Sudoeste 0 932.4 -- 90
2020-11-10 08:00:00 6.4 3 Sudoeste 9 Norte 0 931.5 -- 98
2020-11-10 07:00:00 5.1 6 Norte 8 Norte 0 931.1 -- 97
2020-11-10 06:00:00 6.1 3 Noroeste 4 Norte 0 930.8 -- 98
2020-11-10 05:00:00 6 3 Noroeste 5 Noroeste 0 930.4 -- 97
2020-11-10 04:00:00 6.7 2 Sudoeste 11 Norte 0 930.3 -- 97
2020-11-10 03:00:00 7 3 Sur 7 Oeste 0 930.2 -- 94
2020-11-10 02:00:00 6.8 4 Norte 8 Norte 0 930.1 -- 94
2020-11-10 01:00:00 7.1 7 Norte 9 Norte 0 930.2 -- 95
2020-11-10 00:00:00 7.8 2 Noroeste 7 Norte 0 930.1 -- 84
2020-11-09 23:00:00 8.1 5 Norte 7 Nordeste 0 930 -- 87
2020-11-09 22:00:00 9.2 2 Oeste 7 Norte 0 930 -- 86
2020-11-09 21:00:00 8 3 Noroeste 6 Sudeste 0 929.6 -- 86
2020-11-09 20:00:00 9.3 3 Norte 8 Norte 0 929.4 -- 83
2020-11-09 19:00:00 10.4 3 Este 5 Norte 0 929.1 -- 76
2020-11-09 18:00:00 10.2 0 Calma 6 Norte 0 928.6 -- 80
2020-11-09 17:00:00 12.7 2 Noroeste 8 Sudoeste 0 928.4 -- 72
2020-11-09 16:00:00 14 4 Sur 12 Sur 0 928.3 -- 68
2020-11-09 15:00:00 13.4 6 Sur 12 Sur 0 928 -- 71
2020-11-09 14:00:00 12.5 5 Sur 14 Sur 0 928.2 -- 75
2020-11-09 13:00:00 11.2 9 Sur 16 Sur 0 928.8 -- 82
2020-11-09 12:00:00 8.2 3 Sur 9 Sur 0 929.5 -- 96
2020-11-09 11:00:00 7.7 6 Sur 11 Sur 0 930 -- 96
2020-11-09 10:00:00 8.2 5 Sudeste 10 Sur 0 929.9 -- 94
2020-11-09 09:00:00 6.6 2 Noroeste 8 Nordeste 0 929.8 -- 99
2020-11-09 08:00:00 5.6 3 Oeste 6 Norte 0 929.5 -- 99
2020-11-09 07:00:00 4.6 0 Calma 6 Oeste 0 928.9 -- 99
2020-11-09 06:00:00 6.2 4 Sudoeste 8 Noroeste 0 928.8 -- 99
2020-11-09 05:00:00 6.6 8 Norte 10 Norte 0 928.7 -- 98
2020-11-09 04:00:00 6.9 6 Norte 9 Norte 0 928.4 -- 98
2020-11-09 03:00:00 7.1 2 Norte 8 Noroeste 0 928.8 -- 98
2020-11-09 02:00:00 7 7 Norte 9 Noroeste 0 928.9 -- 97
2020-11-09 01:00:00 7.3 0 Calma 4 Oeste 0 929.3 -- 97
2020-11-09 00:00:00 7.8 3 Sudoeste 11 Norte 0 929.4 -- 95
2020-11-08 23:00:00 7.1 3 Norte 6 Oeste 0 929.4 -- 95
2020-11-08 22:00:00 8.4 5 Noroeste 8 Noroeste 0 929.4 -- 92
2020-11-08 21:00:00 9.2 4 Oeste 6 Noroeste 0 929.3 -- 94
2020-11-08 20:00:00 9.4 3 Oeste 8 Norte 0 929.3 -- 87
2020-11-08 19:00:00 10.1 0 Calma 10 Norte 0 929.2 -- 93
2020-11-08 18:00:00 9 9 Norte 11 Norte 0 928.9 -- 94
2020-11-08 17:00:00 11.9 0 Calma 10 Sur 0 928.7 -- 85
2020-11-08 16:00:00 13.4 3 Sur 10 Sur 0 928.9 -- 79
2020-11-08 15:00:00 13.3 6 Sur 10 Sur 0 929.1 -- 80
2020-11-08 14:00:00 12.3 5 Sudoeste 11 Sur 0 929.5 -- 86
2020-11-08 13:00:00 11.4 4 Sur 9 Sudoeste 0 930 -- 91
2020-11-08 12:00:00 9.9 3 Sudoeste 8 Sur 0 930.7 -- 99
2020-11-08 11:00:00 9.4 5 Sur 9 Sur 0 931 -- 99
2020-11-08 10:00:00 8.7 4 Sudoeste 9 Sudoeste 0 930.9 -- 99
2020-11-08 09:00:00 8.4 4 Oeste 7 Oeste 0 931 -- 99
2020-11-08 08:00:00 7.9 5 Oeste 8 Sudoeste 0 930.5 -- 99
2020-11-08 07:00:00 7.8 4 Noroeste 10 Noroeste 0.2 930 -- 98
2020-11-08 06:00:00 7.7 5 Norte 10 Noroeste 0 929.8 -- 98
2020-11-08 05:00:00 9 4 Noroeste 10 Sur 0 929.9 -- 98
2020-11-08 04:00:00 9.1 3 Sudoeste 6 Oeste 0 929.8 -- 98
2020-11-08 03:00:00 9.1 5 Oeste 12 Norte 0 930.1 -- 98
2020-11-08 02:00:00 8.9 5 Sur 8 Sur 0 930.3 -- 98
2020-11-08 01:00:00 9.2 3 Noroeste 10 Noroeste 0 930.4 -- 98
2020-11-08 00:00:00 9 7 Norte 9 Norte 0 930.2 -- 98
2020-11-07 23:00:00 9.7 2 Sudeste 9 Nordeste 0 930 -- 98
2020-11-07 22:00:00 9.7 2 Noroeste 8 Oeste 1.4 930 -- 98
2020-11-07 21:00:00 10.1 5 Sur 23 Sur 3 929.5 -- 98
2020-11-07 20:00:00 11.5 3 Sudoeste 9 Nordeste 0.6 928.6 -- 93
2020-11-07 19:00:00 11.3 7 Norte 9 Nordeste 0.2 927.9 -- 96
2020-11-07 18:00:00 11.5 4 Nordeste 13 Norte 0 927.5 -- 95
2020-11-07 17:00:00 12 6 Norte 9 Norte 0 926.8 -- 93
2020-11-07 16:00:00 12.7 4 Sudeste 9 Sur 0 926.9 -- 91
2020-11-07 15:00:00 12.4 3 Este 9 Nordeste 0 926.8 -- 97
2020-11-07 14:00:00 11.9 6 Sur 31 Sur 3.6 926.8 -- 98
2020-11-07 13:00:00 12.1 15 Sudeste 34 Sudeste 2 926.2 -- 96
2020-11-07 12:00:00 12.7 18 Sudeste 39 Sudeste 1.6 926.4 -- 94
2020-11-07 11:00:00 12.8 16 Sudeste 35 Sudeste 1 926.4 -- 92
2020-11-07 10:00:00 12.9 20 Sudeste 41 Sudeste 0.4 926.5 -- 89
2020-11-07 09:00:00 14.2 24 Sudeste 43 Sudeste 0 926.6 -- 74
2020-11-07 08:00:00 14.1 11 Sur 26 Sur 0 927.3 -- 66
2020-11-07 07:00:00 13.4 9 Oeste 18 Sudoeste 0 927.2 -- 69
2020-11-07 06:00:00 13.4 5 Oeste 10 Sur 0 927 -- 70
2020-11-07 05:00:00 12.7 7 Noroeste 14 Oeste 0 927.3 -- 74
2020-11-07 04:00:00 12.6 7 Oeste 14 Norte 0 927.8 -- 76
2020-11-07 03:00:00 13.4 8 Sur 10 Sudeste 0 928.5 -- 72
2020-11-07 02:00:00 13.4 6 Oeste 11 Sudoeste 0 929 -- 70
2020-11-07 01:00:00 13.8 7 Sur 15 Sur 0 929.2 -- 70
2020-11-07 00:00:00 14.1 5 Este 22 Nordeste 0 929.3 -- 67
2020-11-06 23:00:00 14 5 Sudoeste 14 Norte 0 929.9 -- 68
2020-11-06 22:00:00 13.3 9 Noroeste 15 Este 0 930.1 -- 73
2020-11-06 21:00:00 13.3 6 Sudeste 11 Sudeste 0 930.1 -- 73
2020-11-06 20:00:00 12.6 9 Noroeste 13 Norte 0 930.2 -- 78
2020-11-06 19:00:00 12.8 4 Noroeste 22 Sur 0 930.4 -- 76
2020-11-06 18:00:00 13.2 8 Sur 17 Sur 0 930.7 -- 76
2020-11-06 17:00:00 14 10 Sur 16 Sur 0 930.6 -- 74
2020-11-06 16:00:00 14.8 10 Sur 23 Sur 0 931 -- 71
2020-11-06 15:00:00 15.6 7 Sur 12 Sur 0 930.9 -- 69
2020-11-06 14:00:00 15.3 5 Sudeste 12 Sudoeste 0 931.4 -- 69
2020-11-06 13:00:00 15.6 6 Sur 16 Sur 0 932 -- 67
2020-11-06 12:00:00 14.6 6 Sudoeste 10 Sudoeste 0 932.9 -- 72
2020-11-06 11:00:00 13.4 6 Sudoeste 10 Sur 0 933.1 0.3 76
2020-11-06 10:00:00 12.3 5 Sudeste 15 Norte 0 933 -- 89
2020-11-06 09:00:00 11 3 Sudeste 6 Oeste 0 932.8 -- 96
2020-11-06 08:00:00 9.5 2 Noroeste 5 Noroeste 0 932.8 -- 96
2020-11-06 07:00:00 9.4 3 Sudoeste 8 Sur 0 932.4 -- 96
2020-11-06 06:00:00 9.6 4 Noroeste 10 Norte 0 932.4 -- 97
2020-11-06 05:00:00 10.1 8 Norte 15 Norte 0 932.2 -- 95
2020-11-06 04:00:00 9.5 13 Norte 17 Norte 2.8 932.4 -- 97
2020-11-06 03:00:00 9.8 6 Nordeste 10 Norte 2.6 933 -- 96
2020-11-06 02:00:00 9.8 8 Norte 13 Noroeste 1 933 -- 95
2020-11-06 01:00:00 10.3 13 Norte 18 Noroeste 0.6 932.4 -- 87
2020-11-06 00:00:00 10.7 5 Oeste 15 Noroeste 0.4 932.7 -- 84
2020-11-05 23:00:00 10.7 7 Noroeste 11 Norte 0 932.4 -- 81
2020-11-05 22:00:00 10.5 4 Oeste 15 Norte 0 932.6 -- 80
2020-11-05 21:00:00 11 6 Sur 18 Sur 0 933 -- 79
2020-11-05 20:00:00 11.4 10 Sur 24 Sur 0 932.8 -- 79
2020-11-05 19:00:00 11.9 8 Sur 19 Sur 0 932.4 -- 76
2020-11-05 18:00:00 12.1 5 Sudoeste 12 Sur 0 932 -- 76
2020-11-05 17:00:00 13.5 0 Calma 10 Sudeste 0 931.8 -- 70
2020-11-05 16:00:00 14.8 5 Sudeste 11 Sur 0 931.7 -- 61
2020-11-05 15:00:00 16.8 6 Sudoeste 11 Oeste 0 931.7 -- 51
2020-11-05 14:00:00 15.3 7 Sur 15 Sur 0 932.1 -- 64
2020-11-05 13:00:00 12.6 5 Sudoeste 10 Sur 0 932.7 -- 83
2020-11-05 12:00:00 10.5 5 Sudoeste 11 Sudoeste 0 933.2 -- 88
2020-11-05 11:00:00 9.6 5 Sudoeste 8 Sudoeste 0 933.4 -- 95
2020-11-05 10:00:00 9 4 Sudoeste 7 Sudoeste 0 933.3 -- 90
2020-11-05 09:00:00 6.9 4 Oeste 9 Sudoeste 0 933.1 -- 96
2020-11-05 08:00:00 6 3 Noroeste 7 Sur 0 932.9 -- 98
2020-11-05 07:00:00 5.2 4 Nordeste 8 Norte 0 932.7 -- 97
2020-11-05 06:00:00 5.4 3 Noroeste 6 Sur 0 932.8 -- 95
2020-11-05 05:00:00 6.3 3 Oeste 7 Sudoeste 0 932.8 -- 96
2020-11-05 04:00:00 5.8 5 Norte 8 Norte 0 932.8 -- 97
2020-11-05 03:00:00 6.9 4 Sur 10 Sudoeste 0 932.5 -- 97
2020-11-05 02:00:00 7.7 8 Sudoeste 20 Norte 0 932.1 -- 92
2020-11-05 01:00:00 8 7 Norte 14 Norte 0 932.2 -- 93
2020-11-05 00:00:00 8.3 3 Sur 6 Noroeste 0 932.3 -- 94
2020-11-04 23:00:00 8.3 4 Sudoeste 21 Noroeste 0 932.1 -- 95
2020-11-04 22:00:00 8 6 Norte 10 Noroeste 0 932 -- 97
2020-11-04 21:00:00 8.3 5 Sur 10 Nordeste 0 931.1 -- 91
2020-11-04 20:00:00 7.9 8 Norte 10 Norte 0 930.2 -- 98
2020-11-04 19:00:00 7.5 3 Norte 6 Norte 0 929.8 -- 97
2020-11-04 18:00:00 8.2 2 Oeste 5 Norte 0 929 -- 97
2020-11-04 17:00:00 8.8 0 Calma 6 Sur 0 929 -- 95
2020-11-04 16:00:00 9 4 Sur 7 Sur 0 929.1 -- 95
2020-11-04 15:00:00 8.9 3 Sur 9 Sur 0 928.9 -- 95
2020-11-04 14:00:00 9 3 Sur 9 Sur 0 928.8 -- 95
2020-11-04 13:00:00 8.3 3 Sudeste 8 Sur 0.2 929.2 -- 98
2020-11-04 12:00:00 7.8 4 Sur 9 Sur 0 929.9 -- 98
2020-11-04 11:00:00 7.7 3 Sudeste 10 Sur 0.2 929.9 1 98
2020-11-04 10:00:00 7.3 3 Noroeste 8 Sur 1 929.9 -- 98
2020-11-04 09:00:00 7.2 7 Sur 10 Sur 1.4 929.5 -- 97
2020-11-04 08:00:00 7.2 3 Sudoeste 6 Sudoeste 0.8 928.9 -- 97
2020-11-04 07:00:00 7.3 2 Sudoeste 7 Sur 1.4 928.6 -- 97
2020-11-04 06:00:00 7.5 3 Norte 5 Sudoeste 2 928.8 -- 97
2020-11-04 05:00:00 7.8 4 Sudoeste 6 Sudoeste 1.6 929 -- 96
2020-11-04 04:00:00 7.7 3 Oeste 12 Norte 2.8 929.3 -- 96
2020-11-04 03:00:00 7.9 6 Noroeste 15 Norte 3.2 929.8 -- 93
2020-11-04 02:00:00 8.5 4 Sur 14 Norte 1.4 930.2 -- 96
2020-11-04 01:00:00 8.5 9 Norte 16 Noroeste 0.4 930.5 -- 95
2020-11-04 00:00:00 8.8 7 Noroeste 12 Noroeste 1.2 930.9 -- 91
2020-11-03 23:00:00 9.1 4 Este 13 Nordeste 1 931.5 -- 84
2020-11-03 22:00:00 10.1 2 Sudoeste 5 Sur 0.2 931.8 -- 93
2020-11-03 21:00:00 10 3 Sudoeste 12 Nordeste 0.2 932 -- 86
2020-11-03 20:00:00 10.1 6 Nordeste 13 Norte 0 931.9 -- 87
2020-11-03 19:00:00 11 3 Sudoeste 11 Oeste 1.2 932.1 -- 95
2020-11-03 18:00:00 11.1 4 Oeste 19 Nordeste 0.2 931.4 -- 92
2020-11-03 17:00:00 11.2 9 Norte 15 Nordeste 1.8 931.1 -- 92
2020-11-03 16:00:00 12.2 5 Sur 7 Sur 0.6 931 -- 96
2020-11-03 15:00:00 12.5 0 Calma 5 Nordeste 3 931.2 -- 94
2020-11-03 14:00:00 12.8 2 Norte 7 Este 0.2 931.4 -- 87
2020-11-03 13:00:00 13 4 Este 8 Sur 0 931.9 -- 81
2020-11-03 12:00:00 13.6 6 Sur 9 Sur 0 932.1 -- 80
2020-11-03 11:00:00 12.3 3 Oeste 7 Norte 0 932.2 -- 83
2020-11-03 10:00:00 12.6 2 Sudeste 4 Sudoeste 0 931.8 -- 83
2020-11-03 09:00:00 12 2 Nordeste 5 Nordeste 0 931.6 -- 83
2020-11-03 08:00:00 11.1 2 Sudoeste 6 Sur 0 931 -- 85
2020-11-03 07:00:00 11.1 2 Sur 9 Noroeste 0 930.6 -- 84
2020-11-03 06:00:00 10.8 3 Norte 8 Sur 0 930.3 -- 83
2020-11-03 05:00:00 12 4 Sudoeste 9 Noroeste 0 930.2 -- 78
2020-11-03 04:00:00 11.5 3 Norte 4 Norte 0 930.2 -- 77
2020-11-03 03:00:00 12.9 0 Calma 9 Noroeste 0 930.1 -- 72
2020-11-03 02:00:00 13 2 Sudoeste 5 Oeste 0 930.1 -- 72
2020-11-03 01:00:00 13.4 3 Oeste 9 Norte 0 930.2 -- 71
2020-11-03 00:00:00 14.2 0 Calma 6 Sur 0 930.2 -- 67
2020-11-02 23:00:00 14.9 2 Norte 4 Norte 0 930.3 -- 64
2020-11-02 22:00:00 15.7 2 Sudoeste 5 Noroeste 0 930.2 -- 61
2020-11-02 21:00:00 15.5 2 Sudeste 4 Sur 0 929.9 -- 62
2020-11-02 20:00:00 16.1 3 Este 10 Norte 0 929.6 -- 59
2020-11-02 19:00:00 15.9 6 Norte 11 Norte 0 929.1 -- 59
2020-11-02 18:00:00 16.5 7 Norte 9 Norte 0 928.6 -- 57
2020-11-02 17:00:00 20.8 5 Sur 9 Sur 0 928.4 -- 43
2020-11-02 16:00:00 21.4 7 Sur 13 Sur 0 928.3 -- 40
2020-11-02 15:00:00 21.4 6 Sur 13 Sur 0 928.4 -- 41
2020-11-02 14:00:00 20.3 5 Sur 15 Sur 0 928.9 -- 43
2020-11-02 13:00:00 19 7 Sur 13 Sur 0 929.6 -- 48
2020-11-02 12:00:00 17.1 6 Sur 13 Sur 0 930.1 -- 56
2020-11-02 11:00:00 15.5 4 Sur 10 Sur 0 930.5 -- 61
2020-11-02 10:00:00 14.3 5 Sur 8 Sur 0 930.6 -- 66
2020-11-02 09:00:00 11.9 4 Sudoeste 6 Sur 0 930.6 -- 72
2020-11-02 08:00:00 10.2 3 Norte 7 Norte 0 930.2 -- 82
2020-11-02 07:00:00 9 0 Calma 6 Sur 0 930 -- 84
2020-11-02 06:00:00 9.6 2 Oeste 4 Oeste 0 930 -- 77
2020-11-02 05:00:00 10 2 Sur 6 Norte 0 929.9 -- 78
2020-11-02 04:00:00 10.1 0 Calma 3 Sudeste 0 930 -- 76
2020-11-02 03:00:00 10.7 2 Sudeste 5 Noroeste 0 930.2 -- 75
2020-11-02 02:00:00 11.7 2 Sudoeste 7 Norte 0 930.4 -- 70
2020-11-02 01:00:00 12.1 0 Calma 6 Norte 0 930.6 -- 69
2020-11-02 00:00:00 12.5 0 Calma 7 Noroeste 0 930.9 -- 67